CRK weather

Diosdado Macapagal International Airport
Angeles/Mabalacat, Pampanga Province, Philippines

Public forecast

Using degrees Celsius for public forecast. Weather courtesy of forecast.io.

METAR (pilot weather report)

Retrieved 2019/04/22 05:00 UTC (39 minutes ago):

RPLC 220500Z 04008KT 9999 SCT020 BKN300 34/23 Q1009 NOSIG RMK A2980

TAF (pilot weather forecast)

Forecast is more than 12 hours old.

Retrieved 2019/04/21 00:03 UTC (1 day ago):

TAF RPLC 212300Z 2200/2306 18006KT 9999 FEW020 SCT300 TX35/2206Z TN25/2222Z TEMPO 2200/2206 14006KT FEW020 BKN300